Pagrindinis puslapis
METAR-TAF:

METAR-TAF

Oro uostai :

Savonlinna, Suomija

platuma: 61-57N, ilguma: 028-57E, Aukštis: 95 m

Dabartinis oras

Ataskaita buvo paskelbta 12 minutes, ne 16:50 UTC
Vėjas 4 kt iš Vakarų, svyruoja nuo Vakarų ir Šiaurės
Temperatūra 8°C
Drėgmė 71%
Slėgis 991 hPa
Matomumas 10 km arba daugiau
Apsiniaukę ne aukštis 4900 ft

METAR: EFSA 161650Z AUTO 28004KT 270V360 9999 OVC049 08/03 Q0991

Laikas: 20:02 (17:02 UTC)

Prognozė

Ataskaita buvo paskelbta 2 valandos ir 37 minutes, ne 14:25 UTC
Prognozė galioja nuo 16 metu 15 UTC su 16 metu 19 UTC
Vėjas 8 kt iš Šiaurės/Šiaurės Vakarų
Matomumas 10 km arba daugiau
Su prošvaistėmis ne aukštis 2500 ft

TAF: EFSA 161425Z 1615/1619 34008KT 9999 BKN025

Orai ataskaitas ir orų prognozės (METAR, TAF).

turimą stotys yra geltonos ir raudonos taškus žemėlapyje.

Perkelti pele per norėdami pamatyti stoties vardą.

Tada spustelėkite, norėdami matyti oro stebėjimo ir prognozės.

Norėdami pakeisti žemėlapį: spustelėkite ant žalios mygtukų su juodo kryžiaus žemyn,; žalią mygtuką su brūkšneliu, jei norite nutolinti; arba žalių rodyklių gretimoms žemėlapius.


METAR-TAF: